createdAt,value
2022-09-13T00:00:35.805Z,4.57
2022-09-13T00:05:38.072Z,4.03
2022-09-13T00:10:40.747Z,4.83
2022-09-13T00:15:46.748Z,8.03
2022-09-13T00:20:48.365Z,5.20
2022-09-13T00:25:49.985Z,4.70
2022-09-13T00:30:52.257Z,3.93
2022-09-13T00:35:53.873Z,4.40
2022-09-13T00:40:55.493Z,4.70
2022-09-13T00:45:57.211Z,4.03
2022-09-13T00:50:58.906Z,7.37
2022-09-13T00:56:09.735Z,6.13
2022-09-13T01:01:12.561Z,5.47
2022-09-13T01:06:16.873Z,4.20
2022-09-13T01:11:25.052Z,4.53
2022-09-13T01:16:26.979Z,4.10
2022-09-13T01:21:50.310Z,4.20
2022-09-13T01:26:59.693Z,4.60
2022-09-13T01:32:36.434Z,5.77
2022-09-13T01:37:43.800Z,5.80
2022-09-13T01:42:55.368Z,4.60
2022-09-13T01:47:58.644Z,4.47
2022-09-13T01:53:01.220Z,4.50
2022-09-13T01:58:05.150Z,4.13
2022-09-13T02:03:36.839Z,3.90
2022-09-13T02:08:43.833Z,4.43
2022-09-13T02:13:49.549Z,4.40
2022-09-13T02:18:53.477Z,4.70
2022-09-13T02:24:00.493Z,5.10
2022-09-13T02:29:04.008Z,4.40
2022-09-13T02:34:09.279Z,4.77
2022-09-13T02:39:15.398Z,4.60
2022-09-13T02:44:23.103Z,5.60
2022-09-13T02:49:29.942Z,4.90
2022-09-13T02:54:51.739Z,5.10
2022-09-13T02:59:53.357Z,4.87
2022-09-13T03:04:55.519Z,4.90
2022-09-13T03:10:04.837Z,5.47
2022-09-13T03:15:12.348Z,5.30
2022-09-13T03:20:24.679Z,5.60
2022-09-13T03:25:48.311Z,6.10
2022-09-13T03:30:57.993Z,6.50
2022-09-13T03:36:10.222Z,6.40
2022-09-13T03:41:14.706Z,6.90
2022-09-13T03:46:21.220Z,7.27
2022-09-13T03:51:22.992Z,6.93
2022-09-13T03:56:24.645Z,6.60
2022-09-13T04:01:26.355Z,7.30
2022-09-13T04:06:28.041Z,7.20
2022-09-13T04:11:30.145Z,7.10
2022-09-13T04:16:31.778Z,7.50
2022-09-13T04:21:33.437Z,8.90
2022-09-13T04:26:35.618Z,8.13
2022-09-13T04:31:37.531Z,8.80
2022-09-13T04:36:39.615Z,8.93
2022-09-13T04:41:48.227Z,9.43
2022-09-13T04:46:50.491Z,9.37
2022-09-13T04:51:52.135Z,9.30
2022-09-13T04:56:54.602Z,9.10
2022-09-13T05:01:56.326Z,9.50
2022-09-13T05:06:58.926Z,9.80
2022-09-13T05:12:00.573Z,9.20
2022-09-13T05:17:02.215Z,9.20
2022-09-13T05:22:03.860Z,9.57
2022-09-13T05:27:05.668Z,8.90
2022-09-13T05:32:07.286Z,8.77
2022-09-13T05:37:08.923Z,8.90
2022-09-13T05:42:10.521Z,9.13
2022-09-13T05:47:13.881Z,8.10
2022-09-13T05:52:15.511Z,7.90
2022-09-13T05:57:17.187Z,8.20
2022-09-13T06:02:18.850Z,8.13
2022-09-13T06:07:20.517Z,8.23
2022-09-13T06:12:22.148Z,8.00
2022-09-13T06:17:23.750Z,8.40
2022-09-13T06:22:25.385Z,8.40
2022-09-13T06:27:27.006Z,8.13
2022-09-13T06:32:28.611Z,9.20
2022-09-13T06:37:30.234Z,9.00
2022-09-13T06:42:34.670Z,8.77
2022-09-13T06:47:36.932Z,8.23
2022-09-13T06:52:38.718Z,7.70
2022-09-13T06:57:40.337Z,7.97
2022-09-13T07:02:41.986Z,8.00
2022-09-13T07:07:43.617Z,7.83
2022-09-13T07:12:45.429Z,7.80
2022-09-13T07:17:47.074Z,8.10
2022-09-13T07:22:48.700Z,7.63
2022-09-13T07:27:50.333Z,7.10
2022-09-13T07:32:51.962Z,7.73
2022-09-13T07:37:53.586Z,7.93
2022-09-13T07:42:55.191Z,7.70
2022-09-13T07:47:56.812Z,7.40
2022-09-13T07:52:58.430Z,6.70
2022-09-13T07:58:00.319Z,7.47
2022-09-13T08:03:01.957Z,7.27
2022-09-13T08:08:03.621Z,8.00
2022-09-13T08:13:05.285Z,8.80
2022-09-13T08:18:07.585Z,9.40
2022-09-13T08:23:09.699Z,10.20
2022-09-13T08:28:15.524Z,12.80
2022-09-13T08:33:17.137Z,13.13
2022-09-13T08:38:19.232Z,14.10
2022-09-13T08:43:31.468Z,13.90
2022-09-13T08:48:37.305Z,14.60
2022-09-13T08:53:44.572Z,13.53
2022-09-13T08:59:08.889Z,13.83
2022-09-13T09:04:16.532Z,13.70
2022-09-13T09:09:21.757Z,12.90
2022-09-13T09:14:31.129Z,15.40
2022-09-13T09:20:03.425Z,14.83
2022-09-13T09:25:05.599Z,16.40
2022-09-13T09:30:13.533Z,16.97
2022-09-13T09:35:50.775Z,17.73
2022-09-13T09:40:52.428Z,18.90
2022-09-13T09:45:54.110Z,18.50
2022-09-13T09:50:58.414Z,19.27
2022-09-13T09:56:12.680Z,21.40
2022-09-13T10:01:19.606Z,19.80
2022-09-13T10:06:22.881Z,21.00
2022-09-13T10:11:26.730Z,19.80
2022-09-13T10:16:29.823Z,21.00
2022-09-13T10:21:31.485Z,21.33
2022-09-13T10:26:33.152Z,22.43
2022-09-13T10:31:36.809Z,22.00
2022-09-13T10:36:53.992Z,21.73
2022-09-13T10:42:04.020Z,20.13
2022-09-13T10:47:07.500Z,19.83
2022-09-13T10:52:27.543Z,21.20
2022-09-13T10:57:36.525Z,23.00
2022-09-13T11:02:59.731Z,23.10
2022-09-13T11:08:11.324Z,22.13
2022-09-13T11:13:21.889Z,21.97
2022-09-13T11:18:32.462Z,22.47
2022-09-13T11:23:43.110Z,22.47
2022-09-13T11:29:21.964Z,21.70
2022-09-13T11:34:37.637Z,19.10
2022-09-13T11:39:46.298Z,21.23
2022-09-13T11:45:01.529Z,20.80
2022-09-13T11:50:18.268Z,19.37
2022-09-13T11:55:38.191Z,15.67
2022-09-13T12:00:57.337Z,12.07
2022-09-13T12:06:12.598Z,12.90
2022-09-13T12:11:23.133Z,13.60
2022-09-13T12:16:38.857Z,14.43
2022-09-13T12:21:41.067Z,15.30
2022-09-13T12:27:08.995Z,16.90
2022-09-13T12:32:10.692Z,17.70
2022-09-13T12:37:18.333Z,21.40
2022-09-13T12:42:25.539Z,20.23
2022-09-13T12:47:51.728Z,19.50
2022-09-13T12:53:17.503Z,17.30
2022-09-13T12:58:38.096Z,16.20
2022-09-13T13:03:46.507Z,15.00
2022-09-13T13:08:52.694Z,11.80
2022-09-13T13:14:00.550Z,11.23
2022-09-13T13:19:06.618Z,10.77
2022-09-13T13:24:17.350Z,9.60
2022-09-13T13:29:29.921Z,9.50
2022-09-13T13:34:43.595Z,7.83
2022-09-13T13:39:48.858Z,8.33
2022-09-13T13:44:53.380Z,8.27
2022-09-13T13:50:16.336Z,8.63
2022-09-13T13:55:44.574Z,6.97
2022-09-13T14:00:48.162Z,5.23
2022-09-13T14:06:27.329Z,4.20
2022-09-13T14:11:47.783Z,2.83
2022-09-13T14:17:20.125Z,2.60
2022-09-13T14:22:25.225Z,2.60
2022-09-13T14:27:29.680Z,2.50
2022-09-13T14:32:41.859Z,2.20
2022-09-13T14:37:43.706Z,2.20
2022-09-13T14:42:47.153Z,2.27
2022-09-13T14:47:55.982Z,2.30
2022-09-13T14:53:02.189Z,2.37
2022-09-13T14:58:07.979Z,4.40
2022-09-13T15:03:14.618Z,2.60
2022-09-13T15:08:25.856Z,2.63
2022-09-13T15:13:27.463Z,2.40
2022-09-13T15:18:36.631Z,1.97
2022-09-13T15:23:40.071Z,1.83
2022-09-13T15:28:41.503Z,1.80
2022-09-13T15:33:47.420Z,1.50
2022-09-13T15:39:09.068Z,1.90
2022-09-13T15:44:10.688Z,1.77
2022-09-13T15:49:15.443Z,1.70
2022-09-13T15:54:17.326Z,1.50
2022-09-13T15:59:20.942Z,1.30
2022-09-13T16:04:22.915Z,1.50
2022-09-13T16:09:24.887Z,1.50
2022-09-13T16:14:26.497Z,1.53
2022-09-13T16:19:28.307Z,1.70
2022-09-13T16:24:29.990Z,1.73
2022-09-13T16:29:31.597Z,1.63
2022-09-13T16:34:33.225Z,1.80
2022-09-13T16:39:34.833Z,1.90
2022-09-13T16:44:36.679Z,2.00
2022-09-13T16:49:38.311Z,1.70
2022-09-13T16:54:40.614Z,2.00
2022-09-13T16:59:42.430Z,1.67
2022-09-13T17:04:44.133Z,2.27
2022-09-13T17:09:45.771Z,1.93
2022-09-13T17:14:47.516Z,1.83
2022-09-13T17:19:49.990Z,1.67
2022-09-13T17:24:51.625Z,1.70
2022-09-13T17:29:53.643Z,1.70
2022-09-13T17:34:55.300Z,1.97
2022-09-13T17:39:56.990Z,2.10
2022-09-13T17:44:58.682Z,2.13
2022-09-13T17:50:00.317Z,1.97
2022-09-13T17:55:02.637Z,2.20
2022-09-13T18:00:05.768Z,2.30
2022-09-13T18:05:12.988Z,2.57
2022-09-13T18:10:40.342Z,2.10
2022-09-13T18:15:37.139Z,2.30
2022-09-13T18:20:40.808Z,2.13
2022-09-13T18:25:42.642Z,2.17
2022-09-13T18:30:51.871Z,2.00
2022-09-13T18:36:01.172Z,2.33
2022-09-13T18:41:10.457Z,2.50
2022-09-13T18:46:14.404Z,2.70
2022-09-13T18:51:18.494Z,2.50
2022-09-13T18:56:20.641Z,2.40
2022-09-13T19:01:28.446Z,1.90
2022-09-13T19:06:32.341Z,2.30
2022-09-13T19:11:53.325Z,2.40
2022-09-13T19:16:56.414Z,3.30
2022-09-13T19:21:58.093Z,2.20
2022-09-13T19:27:01.430Z,2.27
2022-09-13T19:32:03.253Z,2.20
2022-09-13T19:37:04.922Z,10.00
2022-09-13T19:42:08.873Z,3.10
2022-09-13T19:52:36.257Z,2.20
2022-09-13T19:57:41.869Z,3.80
2022-09-13T20:02:47.916Z,2.90
2022-09-13T20:07:52.546Z,3.40
2022-09-13T20:12:54.971Z,2.40
2022-09-13T20:18:02.199Z,2.47
2022-09-13T20:23:03.958Z,2.70
2022-09-13T20:28:05.712Z,2.63
2022-09-13T20:33:07.368Z,2.47
2022-09-13T20:38:30.347Z,2.50
2022-09-13T20:43:33.530Z,2.60
2022-09-13T20:48:36.483Z,2.40
2022-09-13T20:53:39.618Z,2.30
2022-09-13T20:58:44.373Z,2.63
2022-09-13T21:03:49.251Z,3.27
2022-09-13T21:08:52.113Z,2.73
2022-09-13T21:13:55.567Z,4.23
2022-09-13T21:18:57.270Z,3.93
2022-09-13T21:24:00.406Z,3.70
2022-09-13T21:29:02.151Z,4.73
2022-09-13T21:34:05.560Z,3.80
2022-09-13T21:39:07.181Z,3.57
2022-09-13T21:44:09.173Z,3.30
2022-09-13T21:49:12.488Z,3.30
2022-09-13T21:54:18.355Z,3.83
2022-09-13T21:59:20.672Z,3.60
2022-09-13T22:04:25.613Z,4.53
2022-09-13T22:09:28.657Z,3.80
2022-09-13T22:14:30.276Z,4.33
2022-09-13T22:19:32.153Z,4.00
2022-09-13T22:24:35.693Z,4.17
2022-09-13T22:29:37.377Z,4.60
2022-09-13T22:34:40.722Z,5.90
2022-09-13T22:39:42.417Z,6.50
2022-09-13T22:44:44.055Z,6.10
2022-09-13T22:49:45.654Z,5.60
2022-09-13T22:54:50.717Z,4.60
2022-09-13T22:59:52.653Z,4.90
2022-09-13T23:04:54.517Z,5.40
2022-09-13T23:09:56.244Z,5.23
2022-09-13T23:14:57.859Z,6.23
2022-09-13T23:19:59.453Z,5.97
2022-09-13T23:25:01.063Z,4.23
2022-09-13T23:30:02.695Z,4.33
2022-09-13T23:35:04.491Z,3.73
2022-09-13T23:40:06.637Z,3.43
2022-09-13T23:45:08.596Z,3.37
2022-09-13T23:50:10.269Z,3.50
2022-09-13T23:55:14.242Z,4.27
